Time;durP1;ratioP1;P1;durP2;ratioP2;P2;SDS_P1;SDS_P2;PMS_P1;PMS_P2;Temp;Humidity;BMP_temperature;BMP_pressure;BME280_temperature;BME280_humidity;BME280_pressure;Samples;Min_cycle;Max_cycle;Signal;HPM_P1;HPM_P2
2021/10/26 00:02:05;;;;;;;29.23;14.20;;;4.40;99.90;;;;;;5292067;28;20199;-67
2021/10/26 00:04:38;;;;;;;26.30;13.33;;;4.30;99.90;;;;;;5291588;28;20223;-67
2021/10/26 00:07:10;;;;;;;24.30;14.23;;;4.30;99.90;;;;;;5292237;28;20209;-68
2021/10/26 00:09:43;;;;;;;27.40;15.17;;;4.30;99.90;;;;;;5291947;28;20243;-69
2021/10/26 00:12:15;;;;;;;28.57;14.83;;;4.20;99.90;;;;;;5291938;28;20298;-70
2021/10/26 00:14:48;;;;;;;27.97;14.73;;;4.30;99.90;;;;;;5258114;28;20232;-66
2021/10/26 00:17:23;;;;;;;23.47;13.70;;;4.30;99.90;;;;;;5276232;28;20246;-68
2021/10/26 00:19:54;;;;;;;30.83;15.20;;;4.30;99.90;;;;;;5274498;28;20227;-65
2021/10/26 00:22:27;;;;;;;24.97;14.70;;;4.30;99.90;;;;;;5291779;28;20208;-64
2021/10/26 00:25:00;;;;;;;28.43;14.63;;;4.30;99.90;;;;;;5291705;28;20319;-65
2021/10/26 00:27:32;;;;;;;25.80;14.50;;;4.30;99.90;;;;;;5291744;28;20222;-65
2021/10/26 00:30:06;;;;;;;26.20;14.00;;;4.30;99.90;;;;;;5257067;28;20651;-67
2021/10/26 00:32:38;;;;;;;23.27;14.17;;;4.30;99.90;;;;;;5291512;28;20210;-67
2021/10/26 00:35:10;;;;;;;26.10;13.50;;;4.30;99.90;;;;;;5291453;28;20227;-68
2021/10/26 00:37:44;;;;;;;25.33;13.97;;;4.30;99.90;;;;;;5273389;28;20242;-65
2021/10/26 00:40:16;;;;;;;25.60;14.60;;;4.30;99.90;;;;;;5291703;28;20589;-68
2021/10/26 00:42:50;;;;;;;29.53;14.60;;;4.30;99.90;;;;;;5291695;28;20210;-65
2021/10/26 00:45:22;;;;;;;28.43;14.17;;;4.30;99.90;;;;;;5291725;28;20594;-66
2021/10/26 00:47:54;;;;;;;25.13;13.67;;;4.40;99.90;;;;;;5291574;28;20222;-65
2021/10/26 00:50:26;;;;;;;27.37;13.83;;;4.40;99.90;;;;;;5291469;28;20227;-68
2021/10/26 00:53:01;;;;;;;24.97;14.73;;;4.40;99.90;;;;;;5291699;28;20588;-67
2021/10/26 00:55:33;;;;;;;33.03;15.63;;;4.50;99.90;;;;;;5274255;28;20662;-65
2021/10/26 00:58:07;;;;;;;28.10;15.03;;;4.50;99.90;;;;;;5291319;28;20215;-66
2021/10/26 01:00:39;;;;;;;22.33;14.50;;;4.50;99.90;;;;;;5273386;28;20238;-67
2021/10/26 01:03:12;;;;;;;23.70;14.63;;;4.60;99.90;;;;;;5257405;28;20260;-67
2021/10/26 01:05:44;;;;;;;27.83;15.23;;;4.60;99.90;;;;;;5273173;28;20234;-65
2021/10/26 01:08:16;;;;;;;23.57;13.63;;;4.60;99.90;;;;;;5257423;28;20206;-66
2021/10/26 01:10:51;;;;;;;25.63;13.07;;;4.70;99.90;;;;;;5273369;28;20227;-66
2021/10/26 01:13:24;;;;;;;26.17;14.30;;;4.70;99.90;;;;;;5292059;28;20644;-68
2021/10/26 01:15:58;;;;;;;28.43;14.70;;;4.80;99.90;;;;;;5296812;28;20237;-67
2021/10/26 01:18:33;;;;;;;24.60;14.03;;;4.80;99.90;;;;;;5296183;28;20229;-66
2021/10/26 01:21:05;;;;;;;25.87;14.63;;;4.80;99.90;;;;;;5278283;28;20541;-68
2021/10/26 01:23:37;;;;;;;25.97;13.90;;;4.80;99.90;;;;;;5296219;28;20297;-66
2021/10/26 01:26:12;;;;;;;28.43;14.47;;;4.80;99.90;;;;;;5295806;28;20251;-66
2021/10/26 01:28:44;;;;;;;26.03;14.03;;;4.80;99.90;;;;;;5295793;28;20348;-68
2021/10/26 01:31:16;;;;;;;26.47;14.50;;;4.80;99.90;;;;;;5260896;28;20230;-65
2021/10/26 01:33:49;;;;;;;25.77;13.70;;;4.80;99.90;;;;;;5295191;28;20239;-67
2021/10/26 01:36:22;;;;;;;25.00;13.30;;;4.90;99.90;;;;;;5295243;28;20238;-67
2021/10/26 01:38:54;;;;;;;25.20;14.80;;;4.90;99.90;;;;;;5260302;28;20235;-64
2021/10/26 01:41:27;;;;;;;22.93;14.37;;;5.00;99.90;;;;;;5294731;28;20655;-64
2021/10/26 01:44:01;;;;;;;25.57;14.17;;;5.00;99.90;;;;;;5294990;28;20203;-65
2021/10/26 01:46:34;;;;;;;26.20;13.53;;;5.00;99.90;;;;;;5277196;28;20220;-66
2021/10/26 01:49:06;;;;;;;24.60;13.47;;;5.00;99.90;;;;;;5295058;28;20533;-65
2021/10/26 01:51:38;;;;;;;21.43;12.70;;;5.10;99.90;;;;;;5276591;28;20231;-67
2021/10/26 01:54:10;;;;;;;23.77;13.97;;;5.10;99.90;;;;;;5277169;28;20522;-64
2021/10/26 01:56:42;;;;;;;27.23;14.07;;;5.10;99.90;;;;;;5294390;28;20231;-67
2021/10/26 01:59:14;;;;;;;23.33;13.10;;;5.10;99.90;;;;;;5294737;28;20659;-65
2021/10/26 02:01:47;;;;;;;26.23;14.20;;;5.10;99.90;;;;;;5294694;28;20223;-67
2021/10/26 02:04:19;;;;;;;26.10;14.33;;;5.10;99.90;;;;;;5277258;28;20208;-63
2021/10/26 02:06:54;;;;;;;20.97;13.10;;;5.10;99.90;;;;;;5294521;28;20224;-66
2021/10/26 02:09:26;;;;;;;26.67;14.03;;;5.10;99.90;;;;;;5294800;28;20210;-70
2021/10/26 02:11:59;;;;;;;23.87;14.00;;;5.10;99.90;;;;;;5294474;28;20565;-63
2021/10/26 02:14:32;;;;;;;23.90;13.23;;;5.10;99.90;;;;;;5294210;28;20195;-69
2021/10/26 02:17:04;;;;;;;24.43;13.77;;;5.10;99.90;;;;;;5276452;28;20666;-66
2021/10/26 02:19:37;;;;;;;24.70;13.10;;;5.10;99.90;;;;;;5294440;28;20611;-65
2021/10/26 02:22:11;;;;;;;27.73;13.93;;;5.10;99.90;;;;;;5276731;28;20223;-66
2021/10/26 02:24:43;;;;;;;20.80;12.67;;;5.10;99.90;;;;;;5276978;28;20187;-66
2021/10/26 02:27:16;;;;;;;26.33;13.47;;;5.10;99.90;;;;;;5293603;28;20254;-69
2021/10/26 02:29:48;;;;;;;24.90;13.17;;;5.10;99.90;;;;;;5294417;28;20584;-65
2021/10/26 02:32:20;;;;;;;22.87;13.07;;;5.10;99.90;;;;;;5293952;28;20203;-67
2021/10/26 02:34:53;;;;;;;28.03;13.77;;;5.10;99.90;;;;;;5276457;28;20188;-64
2021/10/26 02:37:25;;;;;;;23.80;13.33;;;5.10;99.90;;;;;;5275847;28;20231;-68
2021/10/26 02:39:57;;;;;;;26.97;13.77;;;5.10;99.90;;;;;;5293817;28;20207;-66
2021/10/26 02:42:32;;;;;;;25.67;13.87;;;5.10;99.90;;;;;;5294087;28;20294;-68
2021/10/26 02:45:05;;;;;;;24.50;13.90;;;5.10;99.90;;;;;;5294051;28;20187;-65
2021/10/26 02:47:37;;;;;;;25.03;12.93;;;5.10;99.90;;;;;;5294008;28;20207;-67
2021/10/26 02:50:09;;;;;;;33.07;14.40;;;5.10;99.90;;;;;;5259500;28;20228;-67
2021/10/26 02:52:44;;;;;;;25.47;13.80;;;5.10;99.90;;;;;;5293427;28;20200;-64
2021/10/26 02:55:16;;;;;;;25.03;13.80;;;5.10;99.90;;;;;;5294389;28;20188;-64
2021/10/26 02:57:48;;;;;;;30.40;13.83;;;5.10;99.90;;;;;;5276112;28;20225;-66
2021/10/26 03:00:20;;;;;;;24.97;12.93;;;5.10;99.90;;;;;;5276235;28;20200;-70
2021/10/26 03:02:54;;;;;;;30.30;14.47;;;5.10;99.90;;;;;;5293695;28;20203;-66
2021/10/26 03:05:28;;;;;;;24.33;13.73;;;5.10;99.90;;;;;;5293764;28;20199;-66
2021/10/26 03:08:00;;;;;;;24.83;13.90;;;5.10;99.90;;;;;;5293806;28;20207;-66
2021/10/26 03:10:33;;;;;;;22.93;13.43;;;5.00;99.90;;;;;;5275306;28;20235;-66
2021/10/26 03:13:05;;;;;;;28.33;13.73;;;5.10;99.90;;;;;;5258908;28;20203;-67
2021/10/26 03:15:37;;;;;;;24.90;13.27;;;5.00;99.90;;;;;;5275508;28;20199;-66
2021/10/26 03:18:12;;;;;;;21.63;13.27;;;5.00;99.90;;;;;;5293442;28;20239;-67
2021/10/26 03:20:44;;;;;;;24.57;13.57;;;5.00;99.90;;;;;;5293153;28;20194;-66
2021/10/26 03:23:20;;;;;;;26.67;13.33;;;4.90;99.90;;;;;;5275115;28;20226;-68
2021/10/26 03:25:54;;;;;;;23.17;13.77;;;5.00;99.90;;;;;;5293124;28;20671;-67
2021/10/26 03:28:28;;;;;;;26.83;13.27;;;4.90;99.90;;;;;;5293806;28;20208;-68
2021/10/26 03:31:04;;;;;;;24.07;14.70;;;4.90;99.90;;;;;;5275604;28;20211;-68
2021/10/26 03:33:36;;;;;;;25.60;14.37;;;4.90;99.90;;;;;;5296887;28;20192;-69
2021/10/26 03:36:08;;;;;;;23.17;13.50;;;4.90;99.90;;;;;;5293150;28;20207;-70
2021/10/26 03:38:42;;;;;;;25.30;13.20;;;4.90;99.90;;;;;;5292666;28;20247;-70
2021/10/26 03:41:14;;;;;;;23.23;13.50;;;5.00;99.90;;;;;;5292946;28;20199;-68
2021/10/26 03:43:46;;;;;;;27.87;13.73;;;5.10;99.90;;;;;;5274792;28;20200;-69
2021/10/26 03:46:18;;;;;;;23.87;14.00;;;5.10;99.90;;;;;;5292639;28;20558;-70
2021/10/26 03:48:53;;;;;;;27.47;13.40;;;5.20;99.90;;;;;;5274958;28;20715;-68
2021/10/26 03:51:25;;;;;;;22.83;13.93;;;5.20;99.90;;;;;;5275298;28;20206;-69
2021/10/26 03:53:57;;;;;;;23.30;13.47;;;5.30;99.90;;;;;;5274786;28;20215;-68
2021/10/26 03:56:29;;;;;;;29.07;14.60;;;5.20;99.90;;;;;;5292380;28;20242;-68
2021/10/26 03:59:05;;;;;;;28.03;14.80;;;5.30;99.90;;;;;;5274213;28;20223;-67
2021/10/26 04:01:37;;;;;;;30.03;15.03;;;5.30;99.90;;;;;;5274856;28;20194;-66
2021/10/26 04:04:10;;;;;;;26.37;13.00;;;5.30;99.90;;;;;;5292268;28;20210;-68
2021/10/26 04:06:44;;;;;;;23.03;12.40;;;5.30;99.90;;;;;;5257607;28;20567;-69
2021/10/26 04:09:23;;;;;;;21.80;12.60;;;5.30;99.90;;;;;;5292528;28;20206;-67
2021/10/26 04:12:16;;;;;;;26.60;14.43;;;5.20;99.90;;;;;;5291508;28;20231;-72
2021/10/26 04:14:50;;;;;;;27.80;13.17;;;5.20;99.90;;;;;;5292194;28;20531;-66
2021/10/26 04:17:24;;;;;;;23.10;13.07;;;5.20;99.90;;;;;;5292143;28;20210;-66
2021/10/26 04:19:59;;;;;;;26.07;14.43;;;5.10;99.90;;;;;;5291960;28;20223;-69
2021/10/26 04:22:34;;;;;;;28.00;14.90;;;5.10;99.90;;;;;;5273829;28;20202;-72
2021/10/26 04:25:08;;;;;;;24.60;13.73;;;5.00;99.90;;;;;;5292093;28;20582;-72
2021/10/26 04:27:40;;;;;;;23.83;13.97;;;5.00;99.90;;;;;;5291833;28;20203;-67
2021/10/26 04:30:12;;;;;;;24.67;14.83;;;4.90;99.90;;;;;;5292164;28;20203;-70
2021/10/26 04:32:45;;;;;;;25.10;14.77;;;5.00;99.90;;;;;;5291943;28;20211;-67
2021/10/26 04:35:17;;;;;;;22.67;13.90;;;4.90;99.90;;;;;;5257290;28;20565;-69
2021/10/26 04:37:49;;;;;;;24.73;13.97;;;4.90;99.90;;;;;;5291140;28;20576;-67
2021/10/26 04:40:21;;;;;;;25.83;14.87;;;4.80;99.90;;;;;;5291678;28;20210;-68
2021/10/26 04:42:53;;;;;;;27.10;14.43;;;4.90;99.90;;;;;;5273673;28;20210;-67
2021/10/26 04:45:25;;;;;;;28.50;14.87;;;4.90;99.90;;;;;;5256638;28;20638;-69
2021/10/26 04:47:57;;;;;;;27.77;14.50;;;4.90;99.90;;;;;;5291439;28;20217;-69
2021/10/26 04:50:32;;;;;;;29.77;14.67;;;4.90;99.90;;;;;;5291145;28;20208;-68
2021/10/26 04:53:04;;;;;;;25.87;14.83;;;4.90;99.90;;;;;;5291711;28;20465;-71
2021/10/26 04:55:36;;;;;;;25.30;15.23;;;4.80;99.90;;;;;;5274145;28;20207;-69
2021/10/26 04:58:11;;;;;;;25.70;15.10;;;4.90;99.90;;;;;;5273473;28;20246;-71
2021/10/26 05:00:43;;;;;;;28.13;15.87;;;4.80;99.90;;;;;;5291335;28;20213;-68
2021/10/26 05:03:15;;;;;;;29.17;16.23;;;4.80;99.90;;;;;;5291121;28;20250;-69
2021/10/26 05:05:50;;;;;;;29.63;14.90;;;4.80;99.90;;;;;;5291349;28;20203;-70
2021/10/26 05:08:25;;;;;;;27.63;15.30;;;4.90;99.90;;;;;;5273587;28;20203;-68
2021/10/26 05:10:57;;;;;;;25.07;14.67;;;4.90;99.90;;;;;;5273474;28;20208;-68
2021/10/26 05:13:34;;;;;;;26.70;16.30;;;4.90;99.90;;;;;;5273119;28;20563;-63
2021/10/26 05:16:09;;;;;;;25.13;14.50;;;5.00;99.90;;;;;;5290644;28;20191;-67
2021/10/26 05:18:46;;;;;;;33.73;16.17;;;5.10;99.90;;;;;;5273710;28;20219;-69
2021/10/26 05:21:21;;;;;;;31.00;15.83;;;5.10;99.90;;;;;;5274337;28;20617;-70
2021/10/26 05:23:53;;;;;;;28.70;15.63;;;5.10;99.90;;;;;;5273292;28;20230;-67
2021/10/26 05:26:32;;;;;;;26.90;15.03;;;5.10;99.90;;;;;;5267473;28;20196;-67
2021/10/26 05:29:07;;;;;;;29.77;16.37;;;5.10;99.90;;;;;;5270201;28;20215;-66
2021/10/26 05:31:39;;;;;;;26.07;14.43;;;5.20;99.90;;;;;;5235931;28;20211;-69
2021/10/26 05:34:11;;;;;;;26.83;15.60;;;5.20;99.90;;;;;;5251916;28;20201;-69
2021/10/26 05:36:43;;;;;;;26.53;16.00;;;5.20;99.90;;;;;;5252156;28;20196;-66
2021/10/26 05:39:16;;;;;;;32.67;15.73;;;5.20;99.90;;;;;;5248579;28;20240;-64
2021/10/26 05:41:50;;;;;;;32.23;16.43;;;5.20;99.90;;;;;;5269017;28;20204;-65
2021/10/26 05:44:22;;;;;;;35.97;16.53;;;5.20;99.90;;;;;;5251678;28;20216;-62
2021/10/26 05:46:56;;;;;;;33.40;16.57;;;5.30;99.90;;;;;;5269665;28;20196;-65
2021/10/26 05:49:28;;;;;;;31.57;16.50;;;5.30;99.90;;;;;;5267949;28;20234;-64
2021/10/26 05:52:01;;;;;;;27.73;16.53;;;5.30;99.90;;;;;;5249915;28;20742;-61
2021/10/26 05:54:34;;;;;;;32.60;15.80;;;5.40;99.90;;;;;;5246461;28;20224;-64
2021/10/26 05:57:06;;;;;;;30.73;16.07;;;5.40;99.90;;;;;;5289055;28;20272;-66
2021/10/26 05:59:38;;;;;;;34.90;15.70;;;5.50;99.90;;;;;;5255385;28;20243;-64
2021/10/26 06:02:12;;;;;;;29.03;15.80;;;5.50;99.90;;;;;;5292482;28;20214;-68
2021/10/26 06:04:45;;;;;;;30.20;14.73;;;5.50;99.90;;;;;;5276173;28;20219;-65
2021/10/26 06:07:19;;;;;;;30.27;15.37;;;5.60;99.90;;;;;;5273661;28;20204;-63
2021/10/26 06:09:55;;;;;;;28.40;15.00;;;5.60;99.90;;;;;;5272909;28;20231;-64
2021/10/26 06:12:30;;;;;;;23.67;14.87;;;5.60;99.90;;;;;;5273252;28;20215;-66
2021/10/26 06:15:02;;;;;;;28.53;14.33;;;5.70;99.90;;;;;;5273054;28;20223;-64
2021/10/26 06:17:34;;;;;;;31.37;15.13;;;5.70;99.90;;;;;;5255711;28;20215;-62
2021/10/26 06:20:12;;;;;;;31.47;16.40;;;5.80;99.90;;;;;;5254958;28;20231;-65
2021/10/26 06:22:44;;;;;;;26.63;14.37;;;5.80;99.90;;;;;;5255426;28;20184;-62
2021/10/26 06:25:16;;;;;;;28.90;15.23;;;5.80;99.90;;;;;;5254946;28;20224;-62
2021/10/26 06:27:48;;;;;;;26.47;15.77;;;5.90;99.90;;;;;;5273360;28;20200;-65
2021/10/26 06:30:20;;;;;;;27.23;15.47;;;6.00;99.90;;;;;;5272856;28;20620;-64
2021/10/26 06:32:52;;;;;;;30.67;14.70;;;6.00;99.90;;;;;;5272615;28;20222;-64
2021/10/26 06:35:25;;;;;;;30.27;15.30;;;6.00;99.90;;;;;;5256035;28;20232;-68
2021/10/26 06:37:59;;;;;;;27.13;14.43;;;6.10;99.90;;;;;;5294091;28;20241;-69
2021/10/26 06:40:31;;;;;;;25.27;14.07;;;6.20;99.90;;;;;;5276225;28;20235;-67
2021/10/26 06:43:04;;;;;;;27.90;13.43;;;6.20;99.90;;;;;;5276036;28;20260;-69
2021/10/26 06:45:36;;;;;;;26.83;13.40;;;6.30;99.90;;;;;;5294169;28;20536;-68
2021/10/26 06:48:08;;;;;;;27.50;13.70;;;6.30;99.90;;;;;;5294010;28;20199;-69
2021/10/26 06:50:41;;;;;;;27.10;13.73;;;6.40;99.90;;;;;;5293363;28;20229;-70
2021/10/26 06:53:13;;;;;;;23.77;13.33;;;6.50;99.90;;;;;;5293323;28;20494;-69
2021/10/26 06:55:46;;;;;;;27.97;12.40;;;6.60;99.90;;;;;;5275774;28;20552;-68
2021/10/26 06:58:20;;;;;;;24.40;12.97;;;6.80;99.90;;;;;;5275778;28;20208;-68
2021/10/26 07:00:55;;;;;;;19.90;11.60;;;7.00;99.90;;;;;;5293480;28;20227;-69
2021/10/26 07:03:28;;;;;;;22.87;12.40;;;7.20;99.90;;;;;;5271693;28;20195;-66
2021/10/26 07:06:01;;;;;;;22.77;12.20;;;7.40;99.90;;;;;;5254823;28;20235;-65
2021/10/26 07:08:34;;;;;;;21.73;11.33;;;7.70;99.90;;;;;;5272042;28;20218;-71
2021/10/26 07:11:06;;;;;;;20.07;10.67;;;8.00;99.90;;;;;;5272291;28;20260;-64
2021/10/26 07:13:39;;;;;;;23.97;11.23;;;8.20;99.90;;;;;;5272871;28;20188;-68
2021/10/26 07:16:11;;;;;;;20.40;10.17;;;8.40;99.90;;;;;;5271923;28;20232;-64
2021/10/26 07:18:43;;;;;;;18.83;10.33;;;8.60;99.90;;;;;;5272244;28;20236;-69
2021/10/26 07:21:17;;;;;;;18.47;9.47;;;8.80;99.90;;;;;;5253944;28;20247;-65
2021/10/26 07:23:49;;;;;;;17.07;9.47;;;8.90;99.90;;;;;;5271792;28;20625;-66
2021/10/26 07:26:24;;;;;;;19.30;9.37;;;9.10;99.90;;;;;;5253996;28;20235;-72
2021/10/26 07:28:58;;;;;;;19.00;9.90;;;9.10;99.90;;;;;;5272061;28;20187;-67
2021/10/26 07:31:32;;;;;;;15.57;9.30;;;9.20;99.90;;;;;;5270988;28;20223;-66
2021/10/26 07:34:05;;;;;;;22.03;8.90;;;9.10;99.90;;;;;;5271559;28;20195;-59
2021/10/26 07:36:46;;;;;;;19.80;9.30;;;9.10;99.90;;;;;;5253591;28;20285;-69
2021/10/26 07:41:59;;;;;;;13.70;8.77;;;9.20;99.90;;;;;;5254796;28;20224;-70
2021/10/26 07:44:32;;;;;;;15.13;8.90;;;9.20;99.90;;;;;;5271605;28;20203;-68
2021/10/26 07:47:04;;;;;;;16.47;9.97;;;9.30;99.90;;;;;;5271485;28;20224;-64
2021/10/26 07:49:36;;;;;;;13.23;8.40;;;9.30;99.90;;;;;;5271501;28;20208;-64
2021/10/26 07:52:09;;;;;;;18.27;10.00;;;9.30;99.90;;;;;;5271193;28;20228;-68
2021/10/26 07:54:56;;;;;;;16.07;8.87;;;9.30;99.90;;;;;;5271075;28;20200;-66
2021/10/26 07:57:28;;;;;;;15.33;8.80;;;9.30;99.90;;;;;;5271100;28;20235;-66
2021/10/26 08:00:00;;;;;;;15.10;8.67;;;9.30;99.90;;;;;;5270186;28;20212;-66
2021/10/26 08:02:32;;;;;;;17.67;8.73;;;9.30;99.90;;;;;;5271415;28;20238;-67
2021/10/26 08:05:04;;;;;;;15.97;8.67;;;9.30;99.90;;;;;;5270370;28;20211;-69
2021/10/26 08:07:36;;;;;;;16.90;9.77;;;9.30;99.90;;;;;;5271583;28;20200;-68
2021/10/26 08:10:11;;;;;;;18.20;9.43;;;9.20;99.90;;;;;;5271653;28;20592;-67
2021/10/26 08:12:46;;;;;;;15.93;9.70;;;9.20;99.90;;;;;;5270250;28;20232;-67
2021/10/26 08:15:24;;;;;;;17.70;9.93;;;9.30;99.90;;;;;;5270979;28;20211;-68
2021/10/26 08:17:56;;;;;;;18.63;10.17;;;9.30;99.90;;;;;;5270004;28;20195;-67
2021/10/26 08:20:29;;;;;;;17.17;9.57;;;9.30;99.90;;;;;;5269658;28;20204;-67
2021/10/26 08:23:01;;;;;;;20.63;10.63;;;9.20;99.90;;;;;;5270866;28;20211;-67
2021/10/26 08:25:38;;;;;;;20.57;10.20;;;9.30;99.90;;;;;;5252749;28;20295;-67
2021/10/26 08:28:15;;;;;;;16.37;9.57;;;9.40;99.90;;;;;;5269710;28;20200;-68
2021/10/26 08:31:02;;;;;;;16.40;9.37;;;9.50;99.90;;;;;;5273142;28;20199;-68
2021/10/26 08:33:51;;;;;;;20.60;9.60;;;9.70;99.90;;;;;;5256082;28;20247;-67
2021/10/26 08:36:22;;;;;;;13.33;9.00;;;9.90;99.90;;;;;;5256750;28;20277;-65
2021/10/26 08:38:54;;;;;;;18.73;9.37;;;10.10;99.90;;;;;;5196076;28;20363;-68
2021/10/26 08:41:29;;;;;;;16.20;9.67;;;10.30;99.90;;;;;;5138705;28;20202;-64
2021/10/26 08:44:01;;;;;;;16.30;9.63;;;10.50;99.90;;;;;;5183438;28;20229;-67
2021/10/26 08:46:36;;;;;;;17.47;9.07;;;10.60;99.90;;;;;;5169156;28;20208;-70
2021/10/26 08:49:10;;;;;;;17.07;9.63;;;10.60;99.90;;;;;;5147433;28;20249;-65
2021/10/26 08:51:45;;;;;;;17.33;9.70;;;10.50;99.90;;;;;;5171308;28;20213;-67
2021/10/26 08:54:19;;;;;;;15.60;9.33;;;10.50;99.90;;;;;;5184497;28;20213;-66
2021/10/26 08:56:51;;;;;;;14.77;9.50;;;10.40;99.90;;;;;;5168113;28;20199;-65
2021/10/26 08:59:23;;;;;;;18.50;10.37;;;10.40;99.90;;;;;;5184611;28;20649;-69
2021/10/26 09:01:59;;;;;;;15.47;9.73;;;10.40;99.90;;;;;;5168124;28;20187;-69
2021/10/26 09:04:36;;;;;;;15.20;9.00;;;10.40;99.90;;;;;;5167428;28;20255;-65
2021/10/26 09:07:21;;;;;;;15.60;9.90;;;10.50;99.90;;;;;;5184237;28;20305;-65
2021/10/26 09:10:15;;;;;;;17.50;10.07;;;10.70;99.90;;;;;;5151686;28;20319;-66
2021/10/26 09:18:57;;;;;;;14.37;8.03;;;10.90;99.90;;;;;;5184208;28;20595;-70
2021/10/26 09:21:31;;;;;;;12.37;7.70;;;11.10;99.90;;;;;;5184020;28;20230;-67
2021/10/26 09:24:08;;;;;;;12.93;8.00;;;11.20;99.90;;;;;;5184690;28;20202;-70
2021/10/26 09:26:55;;;;;;;15.20;7.53;;;11.30;99.90;;;;;;5184630;28;20235;-70
2021/10/26 09:29:32;;;;;;;17.00;7.90;;;11.30;99.90;;;;;;5167582;28;20598;-65
2021/10/26 09:32:10;;;;;;;12.87;7.70;;;11.40;99.90;;;;;;5184334;28;20249;-65
2021/10/26 09:34:56;;;;;;;12.53;7.73;;;11.50;99.90;;;;;;5167509;28;20201;-71
2021/10/26 09:37:39;;;;;;;14.67;8.87;;;11.60;99.90;;;;;;5187204;28;20532;-66
2021/10/26 09:40:14;;;;;;;14.30;8.00;;;11.70;99.90;;;;;;5188325;28;20211;-67
2021/10/26 09:42:52;;;;;;;14.77;8.33;;;11.80;99.90;;;;;;5187987;28;20183;-66
2021/10/26 09:45:24;;;;;;;16.23;8.53;;;12.00;99.90;;;;;;5256303;28;20207;-69
2021/10/26 09:48:20;;;;;;;17.17;9.20;;;12.10;99.90;;;;;;5188079;28;20207;-67
2021/10/26 09:51:04;;;;;;;15.27;8.97;;;12.30;99.90;;;;;;5190646;28;20551;-65
2021/10/26 09:53:36;;;;;;;14.67;8.53;;;12.40;99.90;;;;;;5271223;28;20623;-67
2021/10/26 09:56:13;;;;;;;15.87;8.77;;;12.60;99.90;;;;;;5187756;28;20208;-68
2021/10/26 09:59:14;;;;;;;16.87;9.90;;;12.70;99.90;;;;;;5273591;28;20204;-66
2021/10/26 10:01:55;;;;;;;17.97;10.47;;;12.80;99.90;;;;;;5187259;28;20224;-69
2021/10/26 10:04:30;;;;;;;14.70;9.57;;;12.90;99.90;;;;;;5171371;28;20268;-69
2021/10/26 10:07:04;;;;;;;16.57;10.17;;;13.00;99.90;;;;;;5171608;28;20224;-67
2021/10/26 10:09:43;;;;;;;17.07;10.40;;;13.10;99.90;;;;;;5255503;28;20270;-55
2021/10/26 10:12:17;;;;;;;17.93;11.27;;;13.10;99.90;;;;;;5272864;28;20216;-60
2021/10/26 10:14:53;;;;;;;20.65;12.77;;;13.00;99.90;;;;;;5213430;28;20441;-60
2021/10/26 10:17:27;;;;;;;19.10;11.37;;;13.10;99.90;;;;;;5273334;28;20351;-61
2021/10/26 10:20:06;;;;;;;18.40;11.17;;;13.10;99.90;;;;;;5253863;28;20307;-61
2021/10/26 10:22:41;;;;;;;18.50;10.73;;;13.10;99.90;;;;;;5272905;28;20223;-64
2021/10/26 10:25:15;;;;;;;19.37;11.00;;;13.10;99.90;;;;;;5255862;28;20603;-64
2021/10/26 10:27:51;;;;;;;20.83;11.87;;;13.10;99.90;;;;;;5272546;28;20220;-62
2021/10/26 10:30:25;;;;;;;19.40;11.30;;;13.00;99.90;;;;;;5272213;28;20215;-60
2021/10/26 10:33:00;;;;;;;22.90;13.10;;;12.90;99.90;;;;;;5186976;28;20224;-60
2021/10/26 10:35:34;;;;;;;18.90;11.50;;;12.80;99.90;;;;;;5272420;28;20204;-58
2021/10/26 10:38:09;;;;;;;16.40;11.10;;;12.70;99.90;;;;;;5187088;28;20643;-65
2021/10/26 10:40:46;;;;;;;20.60;11.50;;;12.60;99.90;;;;;;5271563;28;20238;-62
2021/10/26 10:43:34;;;;;;;18.20;10.83;;;12.50;99.90;;;;;;5272632;28;20227;-61
2021/10/26 10:46:06;;;;;;;20.90;11.40;;;12.50;99.90;;;;;;5272650;28;20189;-63
2021/10/26 10:48:39;;;;;;;20.70;11.27;;;12.40;99.90;;;;;;5244261;28;20239;-59
2021/10/26 10:51:12;;;;;;;20.67;10.00;;;12.40;99.90;;;;;;5206138;28;20282;-62
2021/10/26 10:53:45;;;;;;;18.20;10.50;;;12.30;99.90;;;;;;5235340;28;20228;-58
2021/10/26 10:56:22;;;;;;;19.00;10.70;;;12.20;99.90;;;;;;5272638;28;20231;-64
2021/10/26 10:58:54;;;;;;;20.43;10.60;;;12.10;99.90;;;;;;5272349;28;20235;-65
2021/10/26 11:01:35;;;;;;;19.17;11.13;;;12.00;99.90;;;;;;5271808;28;20228;-67
2021/10/26 11:04:19;;;;;;;19.80;11.53;;;11.90;99.90;;;;;;5244218;28;20318;-63
2021/10/26 11:06:56;;;;;;;20.23;11.33;;;11.80;99.90;;;;;;5271851;28;20208;-69
2021/10/26 11:09:28;;;;;;;18.53;11.77;;;11.80;99.90;;;;;;5242933;28;20222;-66
2021/10/26 11:12:12;;;;;;;21.70;11.40;;;11.80;99.90;;;;;;5186284;28;20217;-66
2021/10/26 11:14:48;;;;;;;25.87;12.10;;;11.70;99.90;;;;;;5250860;28;20327;-66
2021/10/26 11:17:33;;;;;;;18.67;11.13;;;11.70;99.90;;;;;;5251106;28;20200;-65
2021/10/26 11:20:29;;;;;;;16.13;11.17;;;11.70;99.90;;;;;;5250949;28;20523;-63
2021/10/26 11:23:10;;;;;;;17.43;10.83;;;11.70;99.90;;;;;;5258140;28;20283;-66
2021/10/26 11:25:47;;;;;;;20.80;12.07;;;11.60;99.90;;;;;;5271484;28;20231;-72
2021/10/26 11:28:25;;;;;;;18.60;11.60;;;11.60;99.90;;;;;;5272015;28;20479;-69
2021/10/26 11:31:01;;;;;;;22.50;12.33;;;11.50;99.90;;;;;;5271265;28;20580;-65
2021/10/26 11:33:37;;;;;;;25.77;13.83;;;11.50;99.90;;;;;;5271711;28;20658;-68
2021/10/26 11:36:09;;;;;;;17.73;11.83;;;11.40;99.90;;;;;;5270869;28;20231;-68
2021/10/26 11:38:48;;;;;;;26.17;13.17;;;11.30;99.90;;;;;;5271308;28;20307;-67
2021/10/26 11:41:27;;;;;;;19.37;12.73;;;11.30;99.90;;;;;;5271248;28;20224;-68
2021/10/26 11:44:04;;;;;;;21.70;13.33;;;11.30;99.90;;;;;;5271533;28;20227;-67
2021/10/26 11:46:38;;;;;;;19.67;13.50;;;11.30;99.90;;;;;;5270684;28;20625;-67
2021/10/26 11:49:21;;;;;;;20.50;14.33;;;11.20;99.90;;;;;;5270736;28;20287;-68
2021/10/26 11:51:58;;;;;;;22.10;14.43;;;11.30;99.90;;;;;;5271459;28;20310;-68
2021/10/26 11:54:48;;;;;;;22.97;14.47;;;11.40;99.90;;;;;;5272496;28;20295;-69
2021/10/26 11:57:22;;;;;;;26.23;15.10;;;11.30;99.90;;;;;;5271700;28;20204;-65
2021/10/26 12:00:04;;;;;;;25.53;14.60;;;11.30;99.90;;;;;;5253292;28;20236;-68
2021/10/26 12:02:37;;;;;;;27.70;15.90;;;11.40;99.90;;;;;;5269243;28;20552;-68
2021/10/26 12:05:21;;;;;;;26.33;15.03;;;11.40;99.90;;;;;;5271970;28;20200;-65
2021/10/26 12:07:57;;;;;;;23.17;14.70;;;11.40;99.90;;;;;;5270782;28;20223;-67
2021/10/26 12:10:29;;;;;;;23.97;14.50;;;11.30;99.90;;;;;;5270260;28;20214;-69
2021/10/26 12:13:06;;;;;;;25.37;14.63;;;11.40;99.90;;;;;;5270526;28;20204;-68
2021/10/26 12:15:38;;;;;;;27.87;15.90;;;11.40;99.90;;;;;;5184904;28;20207;-67
2021/10/26 12:18:10;;;;;;;25.20;15.30;;;11.30;99.90;;;;;;5210986;28;20204;-68
2021/10/26 12:20:45;;;;;;;25.23;14.83;;;11.40;99.90;;;;;;5270435;28;20533;-65
2021/10/26 12:23:17;;;;;;;23.60;14.57;;;11.40;99.90;;;;;;5269271;28;20199;-69
2021/10/26 12:25:52;;;;;;;24.87;13.83;;;11.40;99.90;;;;;;5233714;28;20196;-70
2021/10/26 12:28:24;;;;;;;21.93;13.57;;;11.50;99.90;;;;;;5223617;28;20200;-69
2021/10/26 12:30:56;;;;;;;21.70;13.57;;;11.40;99.90;;;;;;5269866;28;20204;-68
2021/10/26 12:33:32;;;;;;;24.43;14.27;;;11.50;99.90;;;;;;5220230;28;20215;-68
2021/10/26 12:36:10;;;;;;;20.83;12.53;;;11.40;99.90;;;;;;5252657;28;20204;-72
2021/10/26 12:38:46;;;;;;;17.63;12.10;;;11.30;99.90;;;;;;5269960;28;20236;-68
2021/10/26 12:41:24;;;;;;;21.20;12.63;;;11.30;99.90;;;;;;5252872;28;20218;-70
2021/10/26 12:44:05;;;;;;;19.50;12.40;;;11.20;99.90;;;;;;5188940;28;20188;-66
2021/10/26 12:46:38;;;;;;;23.40;12.80;;;11.10;99.90;;;;;;5230593;28;20204;-68
2021/10/26 12:49:14;;;;;;;20.80;12.37;;;11.00;99.90;;;;;;5235662;28;20200;-66
2021/10/26 12:51:46;;;;;;;20.17;12.40;;;10.90;99.90;;;;;;5270129;28;20195;-68
2021/10/26 12:54:20;;;;;;;20.57;13.00;;;10.90;99.90;;;;;;5211587;28;20204;-69
2021/10/26 12:56:55;;;;;;;21.73;13.20;;;10.90;99.90;;;;;;5252283;28;20211;-67
2021/10/26 12:59:31;;;;;;;19.13;12.07;;;10.80;99.90;;;;;;5270029;28;20214;-69
2021/10/26 13:02:08;;;;;;;21.73;13.27;;;10.80;99.90;;;;;;5184731;28;20216;-67
2021/10/26 13:04:42;;;;;;;22.07;13.80;;;10.70;99.90;;;;;;5269804;28;20626;-66
2021/10/26 13:07:25;;;;;;;22.43;13.50;;;10.70;99.90;;;;;;5269939;28;20204;-67
2021/10/26 13:09:57;;;;;;;26.10;14.07;;;10.50;99.90;;;;;;5271169;28;20204;-71
2021/10/26 13:12:31;;;;;;;22.50;13.80;;;10.50;99.90;;;;;;5259275;28;20206;-67
2021/10/26 13:15:07;;;;;;;25.17;14.50;;;10.50;99.90;;;;;;5277112;28;20204;-69
2021/10/26 13:17:42;;;;;;;26.90;14.47;;;10.50;99.90;;;;;;5276652;28;20210;-70
2021/10/26 13:20:24;;;;;;;27.50;15.40;;;10.40;99.90;;;;;;5276925;28;20224;-69
2021/10/26 13:23:13;;;;;;;27.93;16.17;;;10.30;99.90;;;;;;5277154;28;20210;-70